Time;durP1;ratioP1;P1;durP2;ratioP2;P2;SDS_P1;SDS_P2;PMS_P1;PMS_P2;Temp;Humidity;BMP_temperature;BMP_pressure;BME280_temperature;BME280_humidity;BME280_pressure;Samples;Min_cycle;Max_cycle;Signal;HPM_P1;HPM_P2
2023/01/25 00:01:52;;;;;;;7.60;4.05;;;;;;;1.38;71.79;101047.56;5090168;28;20079;-53
2023/01/25 00:04:19;;;;;;;7.22;3.67;;;;;;;1.46;71.63;101045.19;5090294;28;20062;-54
2023/01/25 00:06:45;;;;;;;6.78;3.92;;;;;;;1.52;71.85;101033.38;5072039;28;20059;-52
2023/01/25 00:09:12;;;;;;;6.82;3.92;;;;;;;1.57;71.09;101034.34;5076096;28;20082;-56
2023/01/25 00:11:37;;;;;;;6.95;3.33;;;;;;;1.39;70.91;101000.59;5069804;28;20044;-53
2023/01/25 00:14:04;;;;;;;6.40;3.90;;;;;;;1.55;71.24;101036.03;5069753;28;20036;-52
2023/01/25 00:16:31;;;;;;;8.60;3.92;;;;;;;1.56;71.18;101039.44;5055025;28;20066;-55
2023/01/25 00:18:57;;;;;;;7.15;3.97;;;;;;;1.57;70.88;101036.06;5087951;28;20040;-54
2023/01/25 00:21:26;;;;;;;5.85;3.53;;;;;;;1.53;71.04;101027.41;5086541;28;20131;-53
2023/01/25 00:23:52;;;;;;;8.73;3.50;;;;;;;1.53;70.97;101031.66;5079469;28;20079;-56
2023/01/25 00:26:18;;;;;;;9.07;4.20;;;;;;;1.50;70.92;101021.38;5079469;28;20079;-52
2023/01/25 00:28:52;;;;;;;5.70;3.50;;;;;;;1.41;71.08;100992.97;5091016;28;20138;-50
2023/01/25 00:31:47;;;;;;;6.70;3.70;;;;;;;1.53;70.91;101011.16;5076895;28;20123;-52
2023/01/25 00:34:25;;;;;;;6.97;3.58;;;;;;;1.41;71.04;101003.22;5069178;28;20045;-50
2023/01/25 00:36:51;;;;;;;8.18;3.63;;;;;;;1.30;71.07;100997.84;5072021;28;20060;-50
2023/01/25 00:39:17;;;;;;;7.78;4.00;;;;;;;1.22;70.93;100991.66;5090624;28;20506;-51
2023/01/25 00:41:44;;;;;;;6.78;3.58;;;;;;;1.18;71.28;100992.41;5072587;28;20512;-55
2023/01/25 00:44:10;;;;;;;8.27;3.58;;;;;;;1.15;70.93;100989.78;5076364;28;20074;-49
2023/01/25 00:46:36;;;;;;;7.03;3.58;;;;;;;1.11;71.50;100987.94;5089780;28;20040;-53
2023/01/25 00:49:05;;;;;;;7.23;3.80;;;;;;;1.12;71.15;100982.00;5078086;28;20039;-52
2023/01/25 00:51:32;;;;;;;7.40;3.70;;;;;;;1.12;71.31;100984.56;5065390;28;20131;-56
2023/01/25 00:53:58;;;;;;;5.60;3.30;;;;;;;1.04;71.14;100980.97;5068826;28;20040;-50
2023/01/25 00:56:24;;;;;;;6.60;3.53;;;;;;;0.99;71.61;100985.97;5073288;28;20533;-51
2023/01/25 00:58:50;;;;;;;7.95;3.55;;;;;;;0.82;71.08;100985.53;5090448;28;20365;-52
2023/01/25 01:01:18;;;;;;;7.85;3.75;;;;;;;0.70;71.66;100989.47;5076213;28;20128;-48
2023/01/25 01:03:44;;;;;;;7.65;3.55;;;;;;;0.69;71.41;100985.16;5069935;28;20499;-50
2023/01/25 01:06:11;;;;;;;7.57;3.80;;;;;;;0.63;71.63;100978.19;5082433;28;20424;-51
2023/01/25 01:08:41;;;;;;;8.07;3.70;;;;;;;0.60;72.13;100973.00;5088176;28;20044;-53
2023/01/25 01:11:09;;;;;;;7.13;3.78;;;;;;;0.49;71.62;100970.97;5084333;28;20063;-51
2023/01/25 01:13:35;;;;;;;9.40;3.85;;;;;;;0.49;72.03;100971.84;5068514;28;20076;-51
2023/01/25 01:16:03;;;;;;;6.28;3.03;;;;;;;0.56;72.33;100972.88;5076257;28;20406;-51
2023/01/25 01:18:45;;;;;;;7.97;3.83;;;;;;;0.48;71.76;100939.41;5088641;28;20068;-55
2023/01/25 01:21:12;;;;;;;8.05;3.78;;;;;;;0.78;71.75;100970.94;5080372;28;20155;-51
2023/01/25 01:23:38;;;;;;;6.93;3.15;;;;;;;0.88;71.27;100960.94;5102561;28;20074;-53
2023/01/25 01:26:07;;;;;;;7.97;3.70;;;;;;;0.69;71.37;100916.06;5071816;28;20181;-51
2023/01/25 01:28:34;;;;;;;9.32;3.60;;;;;;;0.99;71.27;100956.94;5071641;28;20055;-52
2023/01/25 01:31:09;;;;;;;8.23;3.40;;;;;;;1.00;71.02;100945.84;5063916;28;20596;-53
2023/01/25 01:33:39;;;;;;;6.00;3.47;;;;;;;0.89;71.19;100943.03;5068180;28;20133;-50
2023/01/25 01:36:13;;;;;;;5.70;3.10;;;;;;;0.90;71.05;100949.88;5081064;28;20040;-52
2023/01/25 01:38:40;;;;;;;6.43;2.90;;;;;;;0.92;71.12;100947.38;5088675;28;20151;-52
2023/01/25 01:41:06;;;;;;;3.65;2.65;;;;;;;0.89;70.26;100944.75;5051004;28;20071;-53
2023/01/25 01:43:34;;;;;;;5.20;2.35;;;;;;;0.81;70.17;100940.28;5069100;28;20051;-53
2023/01/25 01:46:19;;;;;;;6.72;3.08;;;;;;;0.74;70.08;100942.66;5084311;28;20036;-49
2023/01/25 01:49:11;;;;;;;5.88;3.10;;;;;;;0.75;69.76;100939.25;5087683;28;20100;-52
2023/01/25 01:51:52;;;;;;;5.00;2.55;;;;;;;0.59;69.71;100937.13;5069795;28;20041;-50
2023/01/25 01:54:40;;;;;;;6.90;3.15;;;;;;;0.41;69.44;100907.72;5067936;28;20143;-53
2023/01/25 01:57:23;;;;;;;4.97;2.30;;;;;;;0.70;69.26;100933.16;5067574;28;20523;-54
2023/01/25 01:59:54;;;;;;;5.25;3.15;;;;;;;0.73;68.89;100923.84;5067922;28;20130;-56
2023/01/25 02:02:21;;;;;;;5.15;2.90;;;;;;;0.79;68.67;100913.78;5074845;28;20127;-51
2023/01/25 02:04:48;;;;;;;5.40;2.78;;;;;;;0.80;68.09;100930.00;5060926;28;20066;-55
2023/01/25 02:07:23;;;;;;;7.38;3.53;;;;;;;0.92;68.19;100925.19;5068903;28;20524;-55
2023/01/25 02:09:50;;;;;;;5.60;3.10;;;;;;;0.84;68.34;100894.28;5044815;28;20504;-54
2023/01/25 02:12:17;;;;;;;5.35;2.95;;;;;;;0.96;68.11;100928.69;5067562;28;20123;-53
2023/01/25 02:14:48;;;;;;;5.82;3.20;;;;;;;0.69;67.79;100908.38;5067290;28;20185;-54
2023/01/25 02:17:25;;;;;;;5.07;2.72;;;;;;;0.80;67.96;100938.56;5087194;28;20051;-51
2023/01/25 02:20:13;;;;;;;7.57;4.07;;;;;;;0.75;68.03;100937.56;5084435;28;20036;-50
2023/01/25 02:22:59;;;;;;;5.32;3.20;;;;;;;0.84;68.04;100937.78;5050814;28;20071;-50
2023/01/25 02:25:26;;;;;;;5.22;3.15;;;;;;;0.94;67.71;100928.66;5067450;28;20060;-49
2023/01/25 02:27:56;;;;;;;4.95;2.47;;;;;;;0.98;68.18;100932.16;5083126;28;20123;-51
2023/01/25 02:30:22;;;;;;;6.03;3.60;;;;;;;0.81;67.28;100935.16;5086898;28;20040;-51
2023/01/25 02:32:50;;;;;;;4.75;2.72;;;;;;;0.85;67.86;100936.09;5074282;28;20399;-48
2023/01/25 02:35:42;;;;;;;6.10;3.05;;;;;;;0.87;67.47;100939.56;5095251;28;20044;-48
2023/01/25 02:38:11;;;;;;;5.00;3.03;;;;;;;0.89;67.57;100939.63;5093124;28;20064;-52
2023/01/25 02:41:01;;;;;;;4.97;3.25;;;;;;;1.00;67.69;100940.72;5050630;28;20055;-53
2023/01/25 02:43:31;;;;;;;5.97;3.47;;;;;;;1.04;67.25;100945.97;5069124;28;20043;-53
2023/01/25 02:46:13;;;;;;;7.25;3.47;;;;;;;0.83;67.67;100915.59;5087159;28;20135;-54
2023/01/25 02:48:42;;;;;;;7.50;3.50;;;;;;;1.12;67.45;100952.13;5059720;28;20044;-54
2023/01/25 02:51:09;;;;;;;6.30;3.30;;;;;;;1.16;67.40;100941.13;5060670;28;20037;-55
2023/01/25 02:53:35;;;;;;;6.22;3.47;;;;;;;1.18;67.25;100936.94;5074171;28;20041;-54
2023/01/25 02:56:01;;;;;;;7.25;3.03;;;;;;;1.24;67.20;100936.22;5067510;28;20483;-53
2023/01/25 02:58:29;;;;;;;11.52;5.72;;;;;;;1.21;67.09;100942.09;5070143;28;20044;-55
2023/01/25 03:00:55;;;;;;;7.18;3.40;;;;;;;1.15;67.49;100936.84;5067048;28;20044;-49
2023/01/25 03:03:21;;;;;;;6.05;3.38;;;;;;;1.27;67.49;100951.63;5071307;28;20545;-51
2023/01/25 03:05:47;;;;;;;6.55;3.90;;;;;;;1.24;67.59;100947.31;5066879;28;20048;-49
2023/01/25 03:08:13;;;;;;;6.32;3.33;;;;;;;1.28;67.64;100941.44;5066823;28;20043;-50
2023/01/25 03:10:39;;;;;;;7.32;3.70;;;;;;;0.94;67.92;100897.06;5050385;28;20036;-51
2023/01/25 03:13:06;;;;;;;7.50;3.70;;;;;;;1.12;67.95;100916.28;5065636;28;20050;-56
2023/01/25 03:15:32;;;;;;;8.20;3.92;;;;;;;1.25;67.97;100920.00;5053060;28;20151;-51
2023/01/25 03:17:57;;;;;;;8.48;4.30;;;;;;;1.24;67.81;100926.81;5067033;28;20232;-52
2023/01/25 03:20:23;;;;;;;7.88;3.42;;;;;;;1.24;68.38;100926.81;5067105;28;20040;-53
2023/01/25 03:22:49;;;;;;;6.45;3.50;;;;;;;1.08;68.06;100900.81;5066831;28;20052;-50
2023/01/25 03:25:15;;;;;;;7.35;3.67;;;;;;;1.01;68.34;100907.47;5062800;28;20043;-55
2023/01/25 03:27:53;;;;;;;5.65;3.20;;;;;;;0.99;68.96;100913.41;5073145;28;20123;-53
2023/01/25 03:30:19;;;;;;;8.27;3.97;;;;;;;0.98;68.81;100911.69;5068578;28;20044;-53
2023/01/25 03:32:44;;;;;;;6.95;3.58;;;;;;;1.08;69.07;100917.06;5073958;28;20035;-53
2023/01/25 03:35:14;;;;;;;7.78;4.22;;;;;;;1.23;68.54;100917.41;5070344;28;20424;-51
2023/01/25 03:37:41;;;;;;;5.85;3.15;;;;;;;1.29;68.73;100898.75;5070400;28;20454;-55
2023/01/25 03:40:08;;;;;;;7.40;3.50;;;;;;;1.00;68.31;100861.34;5087321;28;20093;-52
2023/01/25 03:42:35;;;;;;;6.70;3.83;;;;;;;1.13;68.65;100906.91;5073250;28;20044;-53
2023/01/25 03:45:02;;;;;;;8.05;3.75;;;;;;;1.10;68.89;100914.53;5050744;28;20044;-50
2023/01/25 03:47:29;;;;;;;7.75;3.92;;;;;;;1.11;68.85;100909.44;5070623;28;20063;-52
2023/01/25 03:49:55;;;;;;;6.55;3.65;;;;;;;1.10;68.78;100892.31;5072170;28;20055;-48
2023/01/25 03:55:47;;;;;;;6.95;3.55;;;;;;;1.08;68.34;100883.75;5088412;28;20105;-53
2023/01/25 03:58:13;;;;;;;7.60;3.92;;;;;;;1.27;68.28;100898.72;5090279;28;20035;-53
2023/01/25 04:00:39;;;;;;;6.25;3.42;;;;;;;1.34;68.14;100906.53;5087802;28;20481;-54
2023/01/25 04:03:05;;;;;;;6.63;3.58;;;;;;;1.21;68.52;100877.19;5077801;28;20036;-51
2023/01/25 04:05:31;;;;;;;5.60;3.20;;;;;;;1.21;68.27;100877.19;5089219;28;20503;-51
2023/01/25 04:07:59;;;;;;;9.57;4.30;;;;;;;1.41;68.23;100901.59;5056754;28;20592;-56
2023/01/25 04:10:33;;;;;;;7.47;3.13;;;;;;;1.41;68.36;100891.34;5090197;28;20473;-52
2023/01/25 04:12:59;;;;;;;7.28;3.30;;;;;;;1.10;67.91;100868.44;5088407;28;20066;-53
2023/01/25 04:15:25;;;;;;;8.60;3.58;;;;;;;1.19;68.61;100894.25;5090528;28;20097;-54
2023/01/25 04:17:55;;;;;;;6.88;3.92;;;;;;;1.24;68.38;100900.34;5036879;28;20040;-53
2023/01/25 04:20:22;;;;;;;7.72;3.97;;;;;;;1.25;68.44;100908.06;5076715;28;20066;-52
2023/01/25 04:22:49;;;;;;;5.65;3.67;;;;;;;1.20;68.31;100909.63;5073295;28;20048;-51
2023/01/25 04:25:18;;;;;;;10.10;3.95;;;;;;;0.88;68.29;100855.97;5089869;28;20089;-52
2023/01/25 04:27:49;;;;;;;8.48;4.40;;;;;;;1.25;68.01;100912.31;5073525;28;20047;-54
2023/01/25 04:30:16;;;;;;;7.20;4.00;;;;;;;1.32;68.35;100908.19;5072571;28;20483;-49
2023/01/25 04:32:44;;;;;;;7.72;4.07;;;;;;;1.35;68.40;100910.84;5052734;28;20036;-52
2023/01/25 04:35:30;;;;;;;7.78;3.90;;;;;;;1.37;68.15;100907.47;5087498;28;20151;-54
2023/01/25 04:37:57;;;;;;;7.85;4.40;;;;;;;1.30;68.10;100905.59;5088526;28;20090;-50
2023/01/25 04:40:27;;;;;;;8.80;3.88;;;;;;;1.22;68.30;100914.81;5072646;28;20097;-51
2023/01/25 04:42:54;;;;;;;9.63;5.18;;;;;;;1.23;68.70;100919.09;5089036;28;20044;-53
2023/01/25 04:45:20;;;;;;;10.15;4.97;;;;;;;1.30;68.44;100922.69;5088037;28;20048;-53
2023/01/25 04:47:47;;;;;;;6.00;3.63;;;;;;;1.24;68.32;100921.69;5052526;28;20048;-54
2023/01/25 04:50:14;;;;;;;6.97;4.15;;;;;;;1.18;68.65;100924.13;5058720;28;20074;-52
2023/01/25 04:52:41;;;;;;;9.32;4.15;;;;;;;1.11;68.66;100908.56;5083330;28;20036;-51
2023/01/25 04:55:07;;;;;;;6.00;3.80;;;;;;;1.26;68.42;100925.16;5080131;28;20040;-52
2023/01/25 04:57:39;;;;;;;7.72;4.50;;;;;;;1.32;68.37;100914.19;5073125;28;20533;-52
2023/01/25 05:00:05;;;;;;;9.15;4.60;;;;;;;1.34;68.36;100912.53;5087933;28;20043;-51
2023/01/25 05:02:32;;;;;;;6.50;3.75;;;;;;;1.15;68.58;100897.59;5079707;28;20507;-52
2023/01/25 05:04:58;;;;;;;13.15;4.68;;;;;;;1.26;68.46;100917.47;5085274;28;20036;-53
2023/01/25 05:07:24;;;;;;;8.13;4.63;;;;;;;1.13;68.53;100891.53;5091361;28;20145;-49
2023/01/25 05:09:50;;;;;;;8.93;4.55;;;;;;;1.35;68.28;100910.84;5088394;28;20075;-50
2023/01/25 05:12:18;;;;;;;9.35;4.85;;;;;;;1.03;67.88;100851.19;5073292;28;20046;-54
2023/01/25 05:14:52;;;;;;;8.32;5.10;;;;;;;1.31;68.04;100912.44;5061444;28;20547;-56
2023/01/25 05:17:19;;;;;;;8.32;4.53;;;;;;;1.25;68.14;100910.63;5085518;28;20075;-50
2023/01/25 05:19:45;;;;;;;10.88;4.38;;;;;;;1.28;67.92;100909.81;5077744;28;20086;-52
2023/01/25 05:22:16;;;;;;;10.70;4.82;;;;;;;1.29;68.15;100914.13;5059025;28;20062;-52
2023/01/25 05:24:47;;;;;;;9.55;5.05;;;;;;;1.33;68.22;100909.91;5046985;28;20121;-53
2023/01/25 05:27:16;;;;;;;10.38;5.10;;;;;;;1.34;68.34;100914.22;5074679;28;20088;-48
2023/01/25 05:29:55;;;;;;;7.40;4.45;;;;;;;1.23;68.03;100925.09;5084611;28;20135;-54
2023/01/25 05:32:41;;;;;;;8.23;4.93;;;;;;;1.13;68.14;100920.59;5055759;28;20507;-50
2023/01/25 05:35:08;;;;;;;10.60;5.45;;;;;;;1.25;68.01;100930.25;5080513;28;20040;-53
2023/01/25 05:37:34;;;;;;;6.70;3.90;;;;;;;1.13;67.88;100930.84;5084435;28;20575;-54
2023/01/25 05:40:04;;;;;;;8.77;5.07;;;;;;;0.99;68.59;100918.53;5085986;28;20067;-55
2023/01/25 05:42:35;;;;;;;9.93;5.13;;;;;;;1.07;68.65;100912.75;5093064;28;20457;-53
2023/01/25 05:45:02;;;;;;;10.20;5.03;;;;;;;1.06;68.40;100895.66;5070873;28;20077;-53
2023/01/25 05:47:29;;;;;;;9.23;4.82;;;;;;;1.16;68.15;100897.59;5089327;28;20063;-50
2023/01/25 05:49:55;;;;;;;8.63;5.10;;;;;;;1.15;68.42;100895.84;5087652;28;20520;-55
2023/01/25 05:52:33;;;;;;;8.43;4.78;;;;;;;1.16;68.38;100905.28;5069513;28;20047;-54
2023/01/25 05:55:00;;;;;;;7.90;5.13;;;;;;;1.17;68.08;100901.88;5067397;28;20076;-54
2023/01/25 05:57:27;;;;;;;8.25;4.78;;;;;;;1.12;68.34;100900.06;5067813;28;20539;-53
2023/01/25 05:59:54;;;;;;;8.98;4.80;;;;;;;0.89;68.44;100898.66;5051236;28;20051;-54
2023/01/25 06:02:22;;;;;;;10.00;5.53;;;;;;;0.54;69.02;100883.28;5067924;28;20040;-53
2023/01/25 06:04:48;;;;;;;8.10;4.95;;;;;;;0.73;68.97;100907.66;5064730;28;20041;-57
2023/01/25 06:07:14;;;;;;;7.03;3.72;;;;;;;0.57;68.89;100903.00;5067124;28;20036;-57
2023/01/25 06:09:41;;;;;;;9.73;5.38;;;;;;;0.54;69.07;100901.19;5046451;28;20096;-54
2023/01/25 06:12:09;;;;;;;7.65;4.50;;;;;;;0.60;69.29;100909.03;5072748;28;20063;-49
2023/01/25 06:14:35;;;;;;;8.60;4.45;;;;;;;0.41;69.27;100882.13;5085548;28;20463;-51
2023/01/25 06:17:02;;;;;;;12.60;5.07;;;;;;;0.59;69.45;100912.41;5070773;28;20089;-55
2023/01/25 06:19:54;;;;;;;8.30;4.57;;;;;;;0.65;69.47;100914.25;5085925;28;20130;-57
2023/01/25 06:22:25;;;;;;;10.02;4.65;;;;;;;0.61;69.41;100910.78;5056382;28;20048;-57
2023/01/25 06:24:51;;;;;;;8.10;4.32;;;;;;;0.65;69.50;100909.16;5078069;28;20036;-56
2023/01/25 06:27:17;;;;;;;7.40;4.88;;;;;;;0.42;69.35;100878.72;5069848;28;20043;-58
2023/01/25 06:29:43;;;;;;;13.45;4.70;;;;;;;0.48;69.19;100908.72;5078941;28;20066;-55
2023/01/25 06:32:09;;;;;;;10.95;4.72;;;;;;;0.35;69.60;100899.88;5084564;28;20530;-57
2023/01/25 06:34:35;;;;;;;7.47;4.13;;;;;;;0.34;70.29;100915.16;5072385;28;20592;-55
2023/01/25 06:37:01;;;;;;;6.75;4.10;;;;;;;0.37;69.81;100915.25;5071941;28;20035;-52
2023/01/25 06:39:28;;;;;;;7.15;3.55;;;;;;;0.34;69.99;100922.84;5086184;28;20036;-51
2023/01/25 06:41:55;;;;;;;9.10;4.32;;;;;;;0.35;70.03;100919.47;5078411;28;20040;-55
2023/01/25 06:44:21;;;;;;;8.43;4.30;;;;;;;0.49;69.82;100917.25;5068316;28;20617;-53
2023/01/25 06:46:47;;;;;;;10.07;5.30;;;;;;;0.47;69.65;100918.94;5070705;28;20064;-55
2023/01/25 06:49:13;;;;;;;6.78;3.80;;;;;;;0.43;70.21;100921.38;5071821;28;20547;-52
2023/01/25 06:51:39;;;;;;;7.10;3.78;;;;;;;0.18;70.17;100885.78;5064094;28;20040;-56
2023/01/25 06:54:04;;;;;;;5.78;3.42;;;;;;;0.20;69.97;100890.94;5081535;28;20067;-56
2023/01/25 06:56:31;;;;;;;9.25;4.15;;;;;;;0.38;69.91;100925.53;5085011;28;20126;-57
2023/01/25 06:58:57;;;;;;;7.32;3.97;;;;;;;0.42;69.90;100921.34;5088592;28;20507;-53
2023/01/25 07:01:29;;;;;;;6.03;3.63;;;;;;;0.36;69.52;100921.22;5087133;28;20075;-61
2023/01/25 07:03:56;;;;;;;5.82;3.13;;;;;;;0.13;69.64;100896.69;5088345;28;20036;-60
2023/01/25 07:06:23;;;;;;;8.68;4.05;;;;;;;0.29;69.85;100925.28;5088677;28;20062;-61
2023/01/25 07:08:50;;;;;;;7.25;3.63;;;;;;;0.46;69.60;100932.53;5092958;28;20127;-62
2023/01/25 07:11:17;;;;;;;7.45;3.80;;;;;;;0.01;69.19;100853.75;5058245;28;20051;-63
2023/01/25 07:13:45;;;;;;;7.95;3.97;;;;;;;0.25;69.60;100886.81;5086342;28;20427;-62
2023/01/25 07:16:13;;;;;;;7.35;3.20;;;;;;;0.27;69.65;100897.91;5090605;28;20044;-58
2023/01/25 07:18:39;;;;;;;5.53;3.30;;;;;;;0.41;69.40;100915.38;5083042;28;20040;-61
2023/01/25 07:21:09;;;;;;;4.78;2.70;;;;;;;0.40;69.31;100905.97;5085325;28;20036;-57
2023/01/25 07:23:36;;;;;;;10.50;3.55;;;;;;;0.35;69.73;100907.56;5090901;28;20060;-62
2023/01/25 07:26:02;;;;;;;8.32;3.17;;;;;;;0.34;68.89;100887.03;5090083;28;20503;-69
2023/01/25 07:28:30;;;;;;;6.13;3.15;;;;;;;0.41;69.41;100904.28;5090095;28;20042;-64
2023/01/25 07:31:06;;;;;;;5.25;3.20;;;;;;;0.29;69.33;100870.72;5092222;28;20435;-63
2023/01/25 07:33:33;;;;;;;8.73;4.03;;;;;;;0.43;69.58;100900.06;5099593;28;20081;-63
2023/01/25 07:36:04;;;;;;;8.27;3.67;;;;;;;0.56;70.01;100906.38;5059448;28;20420;-61
2023/01/25 07:38:31;;;;;;;6.50;2.92;;;;;;;0.60;69.51;100905.59;5054503;28;20094;-62
2023/01/25 07:40:57;;;;;;;5.70;3.63;;;;;;;0.60;69.69;100903.91;5086594;28;20455;-62
2023/01/25 07:43:24;;;;;;;6.43;3.67;;;;;;;0.79;69.45;100903.53;5072746;28;20709;-62
2023/01/25 07:45:51;;;;;;;7.28;3.42;;;;;;;0.96;69.13;100909.06;5069946;28;20052;-62
2023/01/25 07:48:18;;;;;;;6.43;3.60;;;;;;;0.79;69.37;100910.34;5069888;28;20051;-62
2023/01/25 07:50:45;;;;;;;8.27;4.10;;;;;;;0.85;69.64;100913.94;5082656;28;20040;-62
2023/01/25 07:53:17;;;;;;;6.65;4.20;;;;;;;0.90;69.43;100898.69;5091712;28;20054;-61
2023/01/25 07:55:43;;;;;;;7.35;4.03;;;;;;;0.70;69.27;100877.72;5089436;28;20040;-62
2023/01/25 07:58:12;;;;;;;7.22;3.97;;;;;;;0.97;69.23;100904.81;5091636;28;20067;-62
2023/01/25 08:00:39;;;;;;;6.45;3.97;;;;;;;1.01;69.32;100904.91;5091646;28;20408;-61
2023/01/25 08:03:06;;;;;;;6.68;4.18;;;;;;;1.12;68.77;100908.59;5083781;28;20414;-62
2023/01/25 08:05:34;;;;;;;7.90;4.00;;;;;;;0.88;69.42;100912.28;5082871;28;20465;-62
2023/01/25 08:08:00;;;;;;;11.82;4.35;;;;;;;0.95;69.59;100909.91;5069545;28;20032;-62
2023/01/25 08:10:26;;;;;;;7.75;4.38;;;;;;;1.07;69.55;100910.19;5069739;28;20435;-63
2023/01/25 08:12:51;;;;;;;8.80;3.85;;;;;;;1.07;68.89;100904.19;5070806;28;20032;-62
2023/01/25 08:15:17;;;;;;;6.68;3.90;;;;;;;0.92;69.67;100902.16;5074483;28;20047;-62
2023/01/25 08:17:43;;;;;;;15.25;3.08;;;;;;;0.88;69.65;100907.16;5088820;28;20048;-61
2023/01/25 08:20:09;;;;;;;6.38;2.58;;;;;;;0.55;69.56;100871.38;5086485;28;20048;-61
2023/01/25 08:22:35;;;;;;;4.97;3.08;;;;;;;0.52;70.07;100882.41;5069097;28;20036;-63
2023/01/25 08:25:02;;;;;;;6.25;2.88;;;;;;;0.53;70.16;100867.88;5090696;28;20349;-60
2023/01/25 08:27:29;;;;;;;5.47;3.47;;;;;;;0.68;69.81;100892.16;5090488;28;20530;-62
2023/01/25 08:29:55;;;;;;;6.50;3.40;;;;;;;0.54;69.94;100873.06;5090660;28;20067;-62
2023/01/25 08:32:21;;;;;;;5.85;3.22;;;;;;;0.66;70.03;100887.84;5090706;28;20035;-61
2023/01/25 08:34:47;;;;;;;5.65;2.97;;;;;;;0.61;70.13;100897.13;5086336;28;20036;-62
2023/01/25 08:37:13;;;;;;;7.50;3.45;;;;;;;0.36;70.10;100850.47;5070704;28;20717;-63
2023/01/25 08:39:39;;;;;;;6.07;3.63;;;;;;;0.64;70.13;100889.50;5070716;28;20507;-65
2023/01/25 08:42:05;;;;;;;7.82;4.20;;;;;;;0.52;70.45;100884.09;5070360;28;20052;-62
2023/01/25 08:44:31;;;;;;;6.60;3.47;;;;;;;0.59;70.36;100888.53;5085362;28;20408;-62
2023/01/25 08:46:57;;;;;;;4.68;3.03;;;;;;;0.61;70.29;100874.09;5089359;28;20042;-62
2023/01/25 08:49:23;;;;;;;7.35;4.13;;;;;;;0.64;70.01;100859.66;5076418;28;20052;-61
2023/01/25 08:51:49;;;;;;;5.72;3.17;;;;;;;0.68;70.18;100864.00;5052178;28;20064;-63
2023/01/25 08:54:15;;;;;;;5.07;3.22;;;;;;;0.81;69.86;100860.06;5085326;28;20113;-62
2023/01/25 08:56:42;;;;;;;5.68;3.53;;;;;;;0.89;70.15;100858.53;5069066;28;20845;-61
2023/01/25 08:59:12;;;;;;;6.20;3.40;;;;;;;0.80;69.91;100866.00;5069907;28;20032;-61
2023/01/25 09:01:38;;;;;;;8.48;3.95;;;;;;;0.69;69.95;100863.19;5079088;28;20039;-62
2023/01/25 09:04:04;;;;;;;5.78;3.58;;;;;;;0.57;70.00;100859.50;5088848;28;20122;-62
2023/01/25 09:06:30;;;;;;;6.35;3.35;;;;;;;0.52;71.04;100845.72;5081025;28;20557;-62
2023/01/25 09:08:57;;;;;;;7.28;4.00;;;;;;;0.60;70.95;100854.44;5081117;28;20139;-62
2023/01/25 09:11:23;;;;;;;7.03;3.72;;;;;;;0.82;71.16;100846.44;5088740;28;20147;-61
2023/01/25 09:13:49;;;;;;;8.02;4.03;;;;;;;0.84;70.85;100845.63;5088798;28;20551;-61
2023/01/25 09:16:26;;;;;;;5.80;3.22;;;;;;;0.78;70.65;100837.84;5090043;28;20051;-60
2023/01/25 09:18:54;;;;;;;6.78;3.08;;;;;;;0.78;70.45;100837.84;5078538;28;20542;-60
2023/01/25 09:21:20;;;;;;;4.43;2.55;;;;;;;0.86;70.23;100830.31;5055140;28;20063;-61
2023/01/25 09:23:50;;;;;;;5.53;3.22;;;;;;;0.80;70.17;100836.16;5088145;28;20036;-62
2023/01/25 09:26:17;;;;;;;4.85;3.28;;;;;;;0.76;70.46;100831.81;5088080;28;20044;-62
2023/01/25 09:28:47;;;;;;;5.40;2.72;;;;;;;0.76;70.38;100819.00;5077469;28;20143;-62
2023/01/25 09:31:13;;;;;;;5.70;3.35;;;;;;;0.83;70.74;100812.34;5069218;28;20685;-61
2023/01/25 09:34:11;;;;;;;6.97;3.67;;;;;;;0.96;70.30;100816.03;5020695;28;20045;-63
2023/01/25 09:36:37;;;;;;;6.70;3.43;;;;;;;1.00;70.30;100816.13;5069045;28;20048;-60
2023/01/25 09:39:03;;;;;;;10.45;3.85;;;;;;;0.65;70.38;100783.75;5068892;28;20611;-61
2023/01/25 09:41:33;;;;;;;4.95;3.65;;;;;;;0.55;71.09;100798.03;5069261;28;20040;-61
2023/01/25 09:44:33;;;;;;;6.05;3.58;;;;;;;0.40;71.65;100800.22;5069203;28;20037;-62
2023/01/25 09:47:25;;;;;;;7.50;3.58;;;;;;;0.28;72.15;100793.13;5075238;28;20063;-61
2023/01/25 09:50:14;;;;;;;7.28;3.65;;;;;;;0.16;72.99;100781.72;5065436;28;20056;-61
2023/01/25 09:53:01;;;;;;;5.07;3.22;;;;;;;0.14;72.93;100779.13;5079634;28;20062;-61
2023/01/25 09:55:28;;;;;;;5.28;3.00;;;;;;;-0.23;73.37;100718.53;5087799;28;20456;-62
2023/01/25 09:57:58;;;;;;;6.55;3.63;;;;;;;0.24;73.70;100782.78;5066760;28;20043;-61
2023/01/25 10:00:33;;;;;;;3.72;2.65;;;;;;;0.15;73.61;100773.19;5067591;28;20042;-61
2023/01/25 10:03:47;;;;;;;9.85;4.25;;;;;;;0.16;73.46;100769.78;5068547;28;20044;-62
2023/01/25 10:06:14;;;;;;;3.38;1.80;;;;;;;0.17;73.16;100768.97;5063219;28;20059;-60
2023/01/25 10:09:07;;;;;;;7.28;3.85;;;;;;;0.20;73.22;100765.63;5087121;28;20447;-61
2023/01/25 10:11:33;;;;;;;7.82;3.30;;;;;;;0.29;73.19;100764.16;5071073;28;20043;-62
2023/01/25 10:13:59;;;;;;;5.22;3.30;;;;;;;0.31;72.65;100761.66;5088860;28;20067;-62
2023/01/25 10:16:40;;;;;;;8.55;4.25;;;;;;;0.42;73.00;100767.84;5087354;28;20451;-62
2023/01/25 10:19:47;;;;;;;6.43;3.70;;;;;;;0.43;72.26;100770.47;5067659;28;20480;-62
2023/01/25 10:22:19;;;;;;;7.72;4.05;;;;;;;0.42;72.45;100770.41;5064523;28;20408;-62
2023/01/25 10:25:06;;;;;;;6.97;3.97;;;;;;;0.42;72.56;100772.97;5087232;28;20032;-62
2023/01/25 10:27:44;;;;;;;5.47;3.50;;;;;;;0.37;72.45;100765.19;5080493;28;20068;-62
2023/01/25 10:30:31;;;;;;;6.90;4.10;;;;;;;0.35;72.58;100756.63;5067084;28;20046;-62
2023/01/25 10:33:04;;;;;;;7.78;4.50;;;;;;;0.38;72.63;100751.59;5067151;28;20044;-64
2023/01/25 10:35:35;;;;;;;8.43;4.25;;;;;;;0.59;72.47;100748.66;5086754;28;20226;-61
2023/01/25 10:38:05;;;;;;;10.02;4.45;;;;;;;0.48;72.58;100750.09;5066831;28;20084;-63
2023/01/25 10:40:38;;;;;;;9.60;5.03;;;;;;;0.43;73.03;100747.44;5068308;28;20036;-61
2023/01/25 10:43:10;;;;;;;6.57;3.45;;;;;;;0.33;72.60;100721.59;5067145;28;20076;-61
2023/01/25 10:45:37;;;;;;;7.15;3.58;;;;;;;0.46;72.66;100745.78;5050368;28;20553;-60
2023/01/25 10:48:06;;;;;;;11.77;3.30;;;;;;;0.26;73.08;100737.66;5053389;28;20062;-60
2023/01/25 10:50:41;;;;;;;8.05;4.30;;;;;;;0.20;73.25;100727.28;5087143;28;20054;-61
2023/01/25 10:53:25;;;;;;;6.88;3.72;;;;;;;0.31;73.37;100721.59;5049439;28;20043;-62
2023/01/25 10:55:57;;;;;;;5.97;2.90;;;;;;;0.21;73.30;100718.78;5067390;28;20040;-61
2023/01/25 10:58:44;;;;;;;10.35;5.43;;;;;;;0.30;73.79;100711.31;5086301;28;20166;-60
2023/01/25 11:01:31;;;;;;;5.60;2.67;;;;;;;0.34;73.65;100713.97;5087243;28;20211;-60
2023/01/25 11:03:58;;;;;;;7.03;3.70;;;;;;;0.30;73.56;100716.44;5088360;28;20047;-65
2023/01/25 11:06:29;;;;;;;11.07;5.15;;;;;;;0.17;73.44;100696.50;5087247;28;20537;-60
2023/01/25 11:08:54;;;;;;;7.65;4.15;;;;;;;0.18;73.54;100701.66;5068341;28;20401;-61
2023/01/25 11:11:20;;;;;;;6.80;3.72;;;;;;;0.12;73.38;100714.28;5079986;28;20050;-60
2023/01/25 11:13:46;;;;;;;6.25;3.33;;;;;;;0.15;73.40;100705.84;5086904;28;20036;-62
2023/01/25 11:16:32;;;;;;;7.03;3.33;;;;;;;-0.04;73.36;100671.28;5088244;28;20036;-62
2023/01/25 11:19:01;;;;;;;8.38;4.13;;;;;;;0.15;73.44;100691.38;5088366;28;20036;-61
2023/01/25 11:21:32;;;;;;;12.53;5.00;;;;;;;0.17;73.92;100696.50;5066180;28;20127;-62
2023/01/25 11:24:08;;;;;;;13.07;4.28;;;;;;;0.14;73.69;100681.09;5068056;28;20037;-61
2023/01/25 11:26:37;;;;;;;8.23;3.72;;;;;;;-0.06;73.47;100655.94;5067751;28;20488;-60
2023/01/25 11:29:11;;;;;;;11.23;4.57;;;;;;;0.22;73.34;100698.34;5066745;28;20051;-61
2023/01/25 11:31:40;;;;;;;10.13;4.45;;;;;;;0.01;73.87;100669.72;5068842;28;20029;-62
2023/01/25 11:34:14;;;;;;;11.35;5.38;;;;;;;0.08;73.98;100681.81;5054582;28;20047;-61
2023/01/25 11:37:06;;;;;;;9.25;4.63;;;;;;;0.05;73.77;100686.88;5053398;28;20084;-62
2023/01/25 11:40:02;;;;;;;11.23;4.70;;;;;;;-0.02;73.85;100696.06;5036409;28;20059;-61
2023/01/25 11:42:32;;;;;;;6.50;3.40;;;;;;;-0.07;73.46;100690.00;5079100;28;20032;-63
2023/01/25 11:45:09;;;;;;;8.33;3.60;;;;;;;-0.01;73.12;100669.69;5087827;28;20522;-62
2023/01/25 11:48:08;;;;;;;7.88;4.30;;;;;;;0.09;72.93;100677.56;5088133;28;20281;-62
2023/01/25 11:50:45;;;;;;;8.15;3.78;;;;;;;0.12;71.80;100682.75;5067563;28;20200;-62